sensor_id;sensor_type;location;lat;lon;timestamp;pressure;altitude;pressure_sealevel;temperature;humidity
7836;BME280;3963;42.658;23.298;2022-07-12T00:00:14;59974.63;;;15.10;66.26
7836;BME280;3963;42.658;23.298;2022-07-12T00:02:40;60011.22;;;15.12;66.01
7836;BME280;3963;42.658;23.298;2022-07-12T00:05:07;59952.69;;;15.09;67.14
7836;BME280;3963;42.658;23.298;2022-07-12T00:07:34;59995.38;;;15.22;66.50
7836;BME280;3963;42.658;23.298;2022-07-12T00:10:03;60023.22;;;15.11;66.35
7836;BME280;3963;42.658;23.298;2022-07-12T00:12:31;60016.31;;;15.24;67.03
7836;BME280;3963;42.658;23.298;2022-07-12T00:14:57;60015.78;;;15.24;66.22
7836;BME280;3963;42.658;23.298;2022-07-12T00:17:24;59989.00;;;15.18;66.09
7836;BME280;3963;42.658;23.298;2022-07-12T00:19:51;59983.78;;;15.18;66.63
7836;BME280;3963;42.658;23.298;2022-07-12T00:22:18;59958.22;;;15.02;68.58
7836;BME280;3963;42.658;23.298;2022-07-12T00:24:44;59963.34;;;14.99;67.60
7836;BME280;3963;42.658;23.298;2022-07-12T00:27:13;59973.47;;;15.06;67.25
7836;BME280;3963;42.658;23.298;2022-07-12T00:29:40;59987.06;;;15.07;67.73
7836;BME280;3963;42.658;23.298;2022-07-12T00:32:07;59986.16;;;15.11;67.35
7836;BME280;3963;42.658;23.298;2022-07-12T00:34:34;59994.13;;;15.16;67.49
7836;BME280;3963;42.658;23.298;2022-07-12T00:37:01;60003.78;;;15.08;67.41
7836;BME280;3963;42.658;23.298;2022-07-12T00:39:28;59988.25;;;14.95;67.21
7836;BME280;3963;42.658;23.298;2022-07-12T00:41:54;60001.34;;;15.13;66.92
7836;BME280;3963;42.658;23.298;2022-07-12T00:44:23;59982.75;;;15.03;68.93
7836;BME280;3963;42.658;23.298;2022-07-12T00:46:52;59944.00;;;14.98;68.26
7836;BME280;3963;42.658;23.298;2022-07-12T00:49:19;59911.06;;;14.79;69.92
7836;BME280;3963;42.658;23.298;2022-07-12T00:51:46;59942.75;;;14.75;70.45
7836;BME280;3963;42.658;23.298;2022-07-12T00:54:15;59964.28;;;14.80;69.63
7836;BME280;3963;42.658;23.298;2022-07-12T00:56:42;59989.09;;;14.89;69.45
7836;BME280;3963;42.658;23.298;2022-07-12T00:59:10;59953.34;;;14.97;68.34
7836;BME280;3963;42.658;23.298;2022-07-12T01:01:39;59970.00;;;14.95;68.60
7836;BME280;3963;42.658;23.298;2022-07-12T01:04:05;59975.75;;;14.96;69.94
7836;BME280;3963;42.658;23.298;2022-07-12T01:06:33;60017.50;;;14.96;69.15
7836;BME280;3963;42.658;23.298;2022-07-12T01:09:00;59947.91;;;14.89;69.14
7836;BME280;3963;42.658;23.298;2022-07-12T01:11:27;59941.38;;;14.81;69.88
7836;BME280;3963;42.658;23.298;2022-07-12T01:13:54;59921.03;;;14.81;70.62
7836;BME280;3963;42.658;23.298;2022-07-12T01:16:23;59937.88;;;14.70;70.30
7836;BME280;3963;42.658;23.298;2022-07-12T01:18:53;59925.84;;;14.69;70.52
7836;BME280;3963;42.658;23.298;2022-07-12T01:21:22;59964.13;;;14.75;70.37
7836;BME280;3963;42.658;23.298;2022-07-12T01:23:51;59904.53;;;14.71;70.21
7836;BME280;3963;42.658;23.298;2022-07-12T01:26:18;59954.63;;;14.71;70.34
7836;BME280;3963;42.658;23.298;2022-07-12T01:28:45;59908.97;;;14.63;70.69
7836;BME280;3963;42.658;23.298;2022-07-12T01:31:13;59932.88;;;14.61;70.54
7836;BME280;3963;42.658;23.298;2022-07-12T01:33:40;59942.03;;;14.69;70.22
7836;BME280;3963;42.658;23.298;2022-07-12T01:36:07;59939.50;;;14.72;69.73
7836;BME280;3963;42.658;23.298;2022-07-12T01:38:34;59976.09;;;14.74;70.63
7836;BME280;3963;42.658;23.298;2022-07-12T01:41:02;59940.84;;;14.80;70.38
7836;BME280;3963;42.658;23.298;2022-07-12T01:43:29;59958.00;;;14.79;70.54
7836;BME280;3963;42.658;23.298;2022-07-12T01:45:56;59937.84;;;14.85;70.50
7836;BME280;3963;42.658;23.298;2022-07-12T01:48:23;59941.28;;;14.78;70.95
7836;BME280;3963;42.658;23.298;2022-07-12T01:50:50;59959.75;;;14.69;71.14
7836;BME280;3963;42.658;23.298;2022-07-12T01:53:17;59942.28;;;14.77;70.77
7836;BME280;3963;42.658;23.298;2022-07-12T01:55:44;59924.66;;;14.80;70.26
7836;BME280;3963;42.658;23.298;2022-07-12T01:58:14;59938.50;;;14.73;70.84
7836;BME280;3963;42.658;23.298;2022-07-12T02:00:42;59970.41;;;14.76;70.54
7836;BME280;3963;42.658;23.298;2022-07-12T02:03:16;59899.38;;;14.56;71.00
7836;BME280;3963;42.658;23.298;2022-07-12T02:05:43;59917.78;;;14.61;70.98
7836;BME280;3963;42.658;23.298;2022-07-12T02:08:10;59948.31;;;14.70;70.98
7836;BME280;3963;42.658;23.298;2022-07-12T02:10:37;59921.09;;;14.67;70.64
7836;BME280;3963;42.658;23.298;2022-07-12T02:13:04;59924.97;;;14.58;71.10
7836;BME280;3963;42.658;23.298;2022-07-12T02:15:33;59931.44;;;14.64;71.81
7836;BME280;3963;42.658;23.298;2022-07-12T02:18:00;59903.44;;;14.53;72.13
7836;BME280;3963;42.658;23.298;2022-07-12T02:20:27;59912.03;;;14.61;71.89
7836;BME280;3963;42.658;23.298;2022-07-12T02:22:54;59917.53;;;14.54;75.46
7836;BME280;3963;42.658;23.298;2022-07-12T02:25:21;59876.81;;;14.35;78.26
7836;BME280;3963;42.658;23.298;2022-07-12T02:27:48;59852.91;;;14.05;80.83
7836;BME280;3963;42.658;23.298;2022-07-12T02:30:14;59772.75;;;13.74;82.43
7836;BME280;3963;42.658;23.298;2022-07-12T02:32:43;59782.84;;;13.64;84.29
7836;BME280;3963;42.658;23.298;2022-07-12T02:35:10;59785.41;;;13.47;85.53
7836;BME280;3963;42.658;23.298;2022-07-12T02:37:37;59733.13;;;13.39;87.13
7836;BME280;3963;42.658;23.298;2022-07-12T02:40:05;59726.63;;;13.30;88.60
7836;BME280;3963;42.658;23.298;2022-07-12T02:42:58;59722.03;;;13.34;88.53
7836;BME280;3963;42.658;23.298;2022-07-12T02:45:25;59713.66;;;13.16;90.40
7836;BME280;3963;42.658;23.298;2022-07-12T02:47:53;59718.97;;;13.04;91.92
7836;BME280;3963;42.658;23.298;2022-07-12T02:50:20;59564.53;;;12.86;94.10
7836;BME280;3963;42.658;23.298;2022-07-12T02:52:47;59691.41;;;12.88;94.46
7836;BME280;3963;42.658;23.298;2022-07-12T02:55:14;59665.41;;;12.88;95.22
7836;BME280;3963;42.658;23.298;2022-07-12T02:57:41;59703.88;;;12.87;97.77
7836;BME280;3963;42.658;23.298;2022-07-12T03:00:08;59694.09;;;12.90;97.82
7836;BME280;3963;42.658;23.298;2022-07-12T03:02:36;59678.31;;;12.85;97.63
7836;BME280;3963;42.658;23.298;2022-07-12T03:05:06;59688.44;;;12.92;96.61
7836;BME280;3963;42.658;23.298;2022-07-12T03:07:33;59692.03;;;12.91;96.86
7836;BME280;3963;42.658;23.298;2022-07-12T03:09:59;59647.69;;;12.86;97.89
7836;BME280;3963;42.658;23.298;2022-07-12T03:12:26;59663.81;;;12.86;99.21
7836;BME280;3963;42.658;23.298;2022-07-12T03:14:54;59665.19;;;12.80;99.15
7836;BME280;3963;42.658;23.298;2022-07-12T03:17:21;59668.84;;;12.81;99.59
7836;BME280;3963;42.658;23.298;2022-07-12T03:19:48;59675.66;;;12.83;100.00
7836;BME280;3963;42.658;23.298;2022-07-12T03:22:17;59652.41;;;12.88;99.81
7836;BME280;3963;42.658;23.298;2022-07-12T03:24:43;59698.84;;;12.92;99.52
7836;BME280;3963;42.658;23.298;2022-07-12T03:27:10;59680.94;;;12.85;100.00
7836;BME280;3963;42.658;23.298;2022-07-12T03:29:37;59678.53;;;12.75;100.00
7836;BME280;3963;42.658;23.298;2022-07-12T03:32:05;59658.34;;;12.78;100.00
7836;BME280;3963;42.658;23.298;2022-07-12T03:34:32;59678.84;;;12.68;100.00
7836;BME280;3963;42.658;23.298;2022-07-12T03:36:59;59668.88;;;12.66;100.00
7836;BME280;3963;42.658;23.298;2022-07-12T03:39:28;59650.63;;;12.64;100.00
7836;BME280;3963;42.658;23.298;2022-07-12T03:41:55;59683.56;;;12.70;100.00
7836;BME280;3963;42.658;23.298;2022-07-12T03:44:22;59665.84;;;12.68;100.00
7836;BME280;3963;42.658;23.298;2022-07-12T03:46:48;59637.81;;;12.69;100.00
7836;BME280;3963;42.658;23.298;2022-07-12T03:49:15;59655.06;;;12.73;100.00
7836;BME280;3963;42.658;23.298;2022-07-12T03:51:42;59643.28;;;12.62;100.00
7836;BME280;3963;42.658;23.298;2022-07-12T03:54:09;59628.59;;;12.58;100.00
7836;BME280;3963;42.658;23.298;2022-07-12T03:56:38;59622.00;;;12.47;100.00
7836;BME280;3963;42.658;23.298;2022-07-12T03:59:22;59623.78;;;12.53;100.00
7836;BME280;3963;42.658;23.298;2022-07-12T04:01:49;59623.09;;;12.48;100.00
7836;BME280;3963;42.658;23.298;2022-07-12T04:04:16;59594.59;;;12.50;100.00
7836;BME280;3963;42.658;23.298;2022-07-12T04:06:42;59654.03;;;12.57;100.00
7836;BME280;3963;42.658;23.298;2022-07-12T04:09:09;59634.50;;;12.63;100.00
7836;BME280;3963;42.658;23.298;2022-07-12T04:11:38;59668.53;;;12.71;100.00
7836;BME280;3963;42.658;23.298;2022-07-12T04:14:05;59685.34;;;12.77;100.00
7836;BME280;3963;42.658;23.298;2022-07-12T04:16:32;59646.91;;;12.77;98.36
7836;BME280;3963;42.658;23.298;2022-07-12T04:18:59;59652.25;;;12.83;98.84
7836;BME280;3963;42.658;23.298;2022-07-12T04:21:26;59671.22;;;12.91;97.96
7836;BME280;3963;42.658;23.298;2022-07-12T04:23:53;59678.19;;;12.97;96.87
7836;BME280;3963;42.658;23.298;2022-07-12T04:26:20;59672.09;;;13.01;97.34
7836;BME280;3963;42.658;23.298;2022-07-12T04:28:49;59669.56;;;13.04;97.24
7836;BME280;3963;42.658;23.298;2022-07-12T04:31:15;59695.41;;;12.99;96.71
7836;BME280;3963;42.658;23.298;2022-07-12T04:33:42;59719.31;;;13.14;96.21
7836;BME280;3963;42.658;23.298;2022-07-12T04:36:09;59711.91;;;13.26;96.33
7836;BME280;3963;42.658;23.298;2022-07-12T04:38:36;59723.47;;;13.30;96.57
7836;BME280;3963;42.658;23.298;2022-07-12T04:41:03;59719.03;;;13.38;96.52
7836;BME280;3963;42.658;23.298;2022-07-12T04:43:31;59752.34;;;13.38;95.52
7836;BME280;3963;42.658;23.298;2022-07-12T04:46:06;59751.06;;;13.46;95.99
7836;BME280;3963;42.658;23.298;2022-07-12T04:48:34;59693.22;;;13.43;96.03
7836;BME280;3963;42.658;23.298;2022-07-12T04:51:01;59796.59;;;13.55;95.67
7836;BME280;3963;42.658;23.298;2022-07-12T04:53:28;59765.91;;;13.55;95.38
7836;BME280;3963;42.658;23.298;2022-07-12T04:55:55;59801.53;;;13.62;93.41
7836;BME280;3963;42.658;23.298;2022-07-12T04:58:22;59765.28;;;13.52;93.10
7836;BME280;3963;42.658;23.298;2022-07-12T05:00:49;59778.19;;;13.64;92.52
7836;BME280;3963;42.658;23.298;2022-07-12T05:03:17;59763.19;;;13.67;92.48
7836;BME280;3963;42.658;23.298;2022-07-12T05:05:44;59784.25;;;13.75;91.93
7836;BME280;3963;42.658;23.298;2022-07-12T05:08:11;59823.63;;;13.85;91.76
7836;BME280;3963;42.658;23.298;2022-07-12T05:10:38;59840.28;;;14.01;91.22
7836;BME280;3963;42.658;23.298;2022-07-12T05:13:06;59829.19;;;14.12;91.17
7836;BME280;3963;42.658;23.298;2022-07-12T05:15:33;59846.94;;;14.14;91.03
7836;BME280;3963;42.658;23.298;2022-07-12T05:17:59;59905.22;;;14.27;90.10
7836;BME280;3963;42.658;23.298;2022-07-12T05:20:28;59877.53;;;14.26;88.82
7836;BME280;3963;42.658;23.298;2022-07-12T05:22:55;59875.56;;;14.29;87.49
7836;BME280;3963;42.658;23.298;2022-07-12T05:25:21;59824.78;;;14.37;88.56
7836;BME280;3963;42.658;23.298;2022-07-12T05:27:48;59894.75;;;14.42;88.09
7836;BME280;3963;42.658;23.298;2022-07-12T05:30:16;59874.81;;;14.38;87.33
7836;BME280;3963;42.658;23.298;2022-07-12T05:32:43;59889.72;;;14.64;84.47
7836;BME280;3963;42.658;23.298;2022-07-12T05:35:10;59911.81;;;14.70;84.32
7836;BME280;3963;42.658;23.298;2022-07-12T05:37:38;59941.75;;;14.76;84.65
7836;BME280;3963;42.658;23.298;2022-07-12T05:40:06;59935.41;;;14.90;84.77
7836;BME280;3963;42.658;23.298;2022-07-12T05:42:33;59930.75;;;15.08;83.68
7836;BME280;3963;42.658;23.298;2022-07-12T05:45:00;59984.41;;;15.21;82.82
7836;BME280;3963;42.658;23.298;2022-07-12T05:47:27;60038.50;;;15.33;81.47
7836;BME280;3963;42.658;23.298;2022-07-12T05:49:54;60018.69;;;15.48;81.19
7836;BME280;3963;42.658;23.298;2022-07-12T05:52:20;60019.09;;;15.61;80.52
7836;BME280;3963;42.658;23.298;2022-07-12T05:55:07;60042.47;;;15.73;78.42
7836;BME280;3963;42.658;23.298;2022-07-12T05:57:34;60058.00;;;15.85;78.47
7836;BME280;3963;42.658;23.298;2022-07-12T06:00:01;60085.59;;;15.99;76.83
7836;BME280;3963;42.658;23.298;2022-07-12T06:02:27;60087.91;;;16.06;76.34
7836;BME280;3963;42.658;23.298;2022-07-12T06:04:54;60136.41;;;16.20;72.57
7836;BME280;3963;42.658;23.298;2022-07-12T06:07:21;60143.22;;;16.36;72.80
7836;BME280;3963;42.658;23.298;2022-07-12T06:09:48;60201.31;;;16.53;69.70
7836;BME280;3963;42.658;23.298;2022-07-12T06:12:16;60156.81;;;16.68;67.81
7836;BME280;3963;42.658;23.298;2022-07-12T06:14:43;60225.06;;;16.76;66.44
7836;BME280;3963;42.658;23.298;2022-07-12T06:17:09;60233.94;;;16.91;66.98
7836;BME280;3963;42.658;23.298;2022-07-12T06:19:36;60225.72;;;16.96;65.68
7836;BME280;3963;42.658;23.298;2022-07-12T06:22:03;60279.16;;;17.14;64.10
7836;BME280;3963;42.658;23.298;2022-07-12T06:24:30;60306.38;;;17.30;63.46
7836;BME280;3963;42.658;23.298;2022-07-12T06:26:57;60288.66;;;17.33;63.80
7836;BME280;3963;42.658;23.298;2022-07-12T06:29:25;60264.03;;;17.32;62.60
7836;BME280;3963;42.658;23.298;2022-07-12T06:31:52;60335.75;;;17.47;64.39
7836;BME280;3963;42.658;23.298;2022-07-12T06:34:18;60339.81;;;17.58;61.95
7836;BME280;3963;42.658;23.298;2022-07-12T06:36:45;60302.31;;;17.65;61.66
7836;BME280;3963;42.658;23.298;2022-07-12T06:39:12;60391.47;;;17.85;61.91
7836;BME280;3963;42.658;23.298;2022-07-12T06:41:39;60404.47;;;18.14;60.48
7836;BME280;3963;42.658;23.298;2022-07-12T06:44:05;60456.28;;;18.57;58.82
7836;BME280;3963;42.658;23.298;2022-07-12T06:46:34;60526.72;;;18.94;57.87
7836;BME280;3963;42.658;23.298;2022-07-12T06:49:01;60595.03;;;19.43;55.71
7836;BME280;3963;42.658;23.298;2022-07-12T06:51:28;60676.78;;;19.99;54.41
7836;BME280;3963;42.658;23.298;2022-07-12T06:53:55;60659.38;;;19.98;53.45
7836;BME280;3963;42.658;23.298;2022-07-12T06:56:22;60719.06;;;20.21;52.58
7836;BME280;3963;42.658;23.298;2022-07-12T06:58:48;60770.25;;;20.74;52.65
7836;BME280;3963;42.658;23.298;2022-07-12T07:01:15;60819.44;;;21.12;49.07
7836;BME280;3963;42.658;23.298;2022-07-12T07:03:43;60861.31;;;21.36;50.08
7836;BME280;3963;42.658;23.298;2022-07-12T07:06:10;60932.72;;;21.76;48.87
7836;BME280;3963;42.658;23.298;2022-07-12T07:08:37;60929.19;;;21.80;47.45
7836;BME280;3963;42.658;23.298;2022-07-12T07:11:04;60964.94;;;22.08;46.78
7836;BME280;3963;42.658;23.298;2022-07-12T07:13:31;60914.91;;;21.79;46.73
7836;BME280;3963;42.658;23.298;2022-07-12T07:15:57;60853.44;;;21.53;46.73
7836;BME280;3963;42.658;23.298;2022-07-12T07:18:24;60934.28;;;21.75;48.58
7836;BME280;3963;42.658;23.298;2022-07-12T07:20:52;61005.63;;;22.26;45.94
7836;BME280;3963;42.658;23.298;2022-07-12T07:23:19;60842.59;;;21.43;49.03
7836;BME280;3963;42.658;23.298;2022-07-12T07:25:46;60851.53;;;21.27;50.64
7836;BME280;3963;42.658;23.298;2022-07-12T07:28:13;60934.31;;;21.60;50.01
7836;BME280;3963;42.658;23.298;2022-07-12T07:30:39;60894.47;;;21.67;48.87
7836;BME280;3963;42.658;23.298;2022-07-12T07:33:17;61096.00;;;22.76;45.76
7836;BME280;3963;42.658;23.298;2022-07-12T07:35:45;61106.47;;;23.05;43.32
7836;BME280;3963;42.658;23.298;2022-07-12T07:38:14;61232.78;;;23.83;41.65
7836;BME280;3963;42.658;23.298;2022-07-12T07:40:41;61346.09;;;24.63;39.25
7836;BME280;3963;42.658;23.298;2022-07-12T07:43:08;61465.84;;;25.24;37.37
7836;BME280;3963;42.658;23.298;2022-07-12T07:45:35;61536.69;;;25.48;36.42
7836;BME280;3963;42.658;23.298;2022-07-12T07:48:02;61493.97;;;25.41;36.92
7836;BME280;3963;42.658;23.298;2022-07-12T07:50:29;61541.38;;;25.77;36.41
7836;BME280;3963;42.658;23.298;2022-07-12T07:52:56;61469.06;;;25.42;36.11
7836;BME280;3963;42.658;23.298;2022-07-12T07:55:24;61550.50;;;25.49;35.94
7836;BME280;3963;42.658;23.298;2022-07-12T07:57:51;61606.47;;;26.17;35.39
7836;BME280;3963;42.658;23.298;2022-07-12T08:00:18;61645.50;;;26.41;34.62
7836;BME280;3963;42.658;23.298;2022-07-12T08:02:45;61590.63;;;26.05;34.36
7836;BME280;3963;42.658;23.298;2022-07-12T08:05:11;61662.47;;;26.39;32.71
7836;BME280;3963;42.658;23.298;2022-07-12T08:07:38;61576.44;;;25.77;33.73
7836;BME280;3963;42.658;23.298;2022-07-12T08:10:06;61489.41;;;25.14;36.64
7836;BME280;3963;42.658;23.298;2022-07-12T08:12:34;61559.91;;;25.92;35.28
7836;BME280;3963;42.658;23.298;2022-07-12T08:15:01;61635.28;;;26.36;32.11
7836;BME280;3963;42.658;23.298;2022-07-12T08:17:27;61532.53;;;25.66;35.35
7836;BME280;3963;42.658;23.298;2022-07-12T08:19:55;61440.75;;;25.04;36.14
7836;BME280;3963;42.658;23.298;2022-07-12T08:22:22;61406.13;;;24.99;36.05
7836;BME280;3963;42.658;23.298;2022-07-12T08:24:48;61639.75;;;25.97;33.79
7836;BME280;3963;42.658;23.298;2022-07-12T08:27:15;61739.47;;;26.83;33.74
7836;BME280;3963;42.658;23.298;2022-07-12T08:29:43;61730.56;;;26.87;31.25
7836;BME280;3963;42.658;23.298;2022-07-12T08:32:10;61802.38;;;27.19;30.65
7836;BME280;3963;42.658;23.298;2022-07-12T08:34:37;61566.31;;;25.93;32.74
7836;BME280;3963;42.658;23.298;2022-07-12T08:37:04;61567.97;;;25.62;33.63
7836;BME280;3963;42.658;23.298;2022-07-12T08:39:31;61656.94;;;26.03;34.80
7836;BME280;3963;42.658;23.298;2022-07-12T08:41:57;61774.47;;;26.96;31.80
7836;BME280;3963;42.658;23.298;2022-07-12T08:44:24;61808.47;;;27.10;30.78
7836;BME280;3963;42.658;23.298;2022-07-12T08:46:52;61711.81;;;26.53;31.38
7836;BME280;3963;42.658;23.298;2022-07-12T08:49:19;61826.84;;;27.34;31.58
7836;BME280;3963;42.658;23.298;2022-07-12T08:51:46;62033.50;;;28.70;26.55
7836;BME280;3963;42.658;23.298;2022-07-12T08:54:13;62154.13;;;29.17;27.74
7836;BME280;3963;42.658;23.298;2022-07-12T08:56:43;61934.28;;;27.91;29.11
7836;BME280;3963;42.658;23.298;2022-07-12T08:59:11;61912.47;;;28.08;30.08
7836;BME280;3963;42.658;23.298;2022-07-12T09:01:39;61743.03;;;26.79;30.76
7836;BME280;3963;42.658;23.298;2022-07-12T09:04:14;61810.50;;;27.39;30.82
7836;BME280;3963;42.658;23.298;2022-07-12T09:06:41;61871.06;;;27.65;29.05
7836;BME280;3963;42.658;23.298;2022-07-12T09:09:08;61769.28;;;27.16;29.96
7836;BME280;3963;42.658;23.298;2022-07-12T09:11:37;61915.56;;;27.74;29.97
7836;BME280;3963;42.658;23.298;2022-07-12T09:14:04;62017.81;;;28.80;28.73
7836;BME280;3963;42.658;23.298;2022-07-12T09:16:31;62022.47;;;28.60;27.34
7836;BME280;3963;42.658;23.298;2022-07-12T09:19:16;62080.75;;;28.94;26.70
7836;BME280;3963;42.658;23.298;2022-07-12T09:21:49;61950.50;;;28.14;25.42
7836;BME280;3963;42.658;23.298;2022-07-12T09:24:17;61925.66;;;27.88;26.89
7836;BME280;3963;42.658;23.298;2022-07-12T09:26:44;62012.22;;;28.41;28.20
7836;BME280;3963;42.658;23.298;2022-07-12T09:29:12;62145.66;;;29.34;27.24
7836;BME280;3963;42.658;23.298;2022-07-12T09:31:43;62163.69;;;29.31;26.18
7836;BME280;3963;42.658;23.298;2022-07-12T09:34:26;62020.84;;;28.44;27.05
7836;BME280;3963;42.658;23.298;2022-07-12T09:37:10;62180.34;;;29.48;25.51
7836;BME280;3963;42.658;23.298;2022-07-12T09:39:38;62048.41;;;28.69;26.24
7836;BME280;3963;42.658;23.298;2022-07-12T09:42:07;61766.00;;;26.66;28.59
7836;BME280;3963;42.658;23.298;2022-07-12T09:44:35;61813.16;;;27.39;27.98
7836;BME280;3963;42.658;23.298;2022-07-12T09:47:01;61989.19;;;28.22;26.36
7836;BME280;3963;42.658;23.298;2022-07-12T09:49:30;62080.63;;;28.91;25.27
7836;BME280;3963;42.658;23.298;2022-07-12T09:51:58;62150.69;;;29.41;24.58
7836;BME280;3963;42.658;23.298;2022-07-12T09:54:27;62193.84;;;29.68;25.30
7836;BME280;3963;42.658;23.298;2022-07-12T09:56:59;62024.09;;;28.62;25.89
7836;BME280;3963;42.658;23.298;2022-07-12T09:59:28;62042.69;;;28.59;26.35
7836;BME280;3963;42.658;23.298;2022-07-12T10:01:56;61989.19;;;28.54;26.99
7836;BME280;3963;42.658;23.298;2022-07-12T10:04:28;61984.44;;;28.40;26.81
7836;BME280;3963;42.658;23.298;2022-07-12T10:06:57;62187.81;;;29.48;24.98
7836;BME280;3963;42.658;23.298;2022-07-12T10:09:25;62241.94;;;29.68;23.96
7836;BME280;3963;42.658;23.298;2022-07-12T10:11:53;62242.03;;;29.71;23.09
7836;BME280;3963;42.658;23.298;2022-07-12T10:14:22;62157.66;;;29.57;23.27
7836;BME280;3963;42.658;23.298;2022-07-12T10:16:51;62288.25;;;29.93;22.95
7836;BME280;3963;42.658;23.298;2022-07-12T10:19:25;62246.94;;;30.04;22.96
7836;BME280;3963;42.658;23.298;2022-07-12T10:21:53;62271.81;;;30.12;22.20
7836;BME280;3963;42.658;23.298;2022-07-12T10:24:50;61927.13;;;28.17;23.59
7836;BME280;3963;42.658;23.298;2022-07-12T10:27:36;62027.09;;;28.54;24.45
7836;BME280;3963;42.658;23.298;2022-07-12T10:30:14;62146.97;;;29.25;24.25
7836;BME280;3963;42.658;23.298;2022-07-12T10:32:43;62287.19;;;30.24;23.32
7836;BME280;3963;42.658;23.298;2022-07-12T10:35:16;62268.91;;;30.37;22.46
7836;BME280;3963;42.658;23.298;2022-07-12T10:38:19;62250.56;;;30.00;23.91
7836;BME280;3963;42.658;23.298;2022-07-12T10:40:49;62356.53;;;30.48;23.78
7836;BME280;3963;42.658;23.298;2022-07-12T10:43:27;62216.94;;;29.72;23.72
7836;BME280;3963;42.658;23.298;2022-07-12T10:46:18;61974.78;;;28.38;24.60
7836;BME280;3963;42.658;23.298;2022-07-12T10:48:48;61869.56;;;27.69;25.23
7836;BME280;3963;42.658;23.298;2022-07-12T10:51:16;61884.75;;;27.92;25.36
7836;BME280;3963;42.658;23.298;2022-07-12T10:53:45;62006.41;;;28.43;25.51
7836;BME280;3963;42.658;23.298;2022-07-12T10:56:17;62123.41;;;29.23;23.99
7836;BME280;3963;42.658;23.298;2022-07-12T10:58:47;62094.41;;;29.04;24.66
7836;BME280;3963;42.658;23.298;2022-07-12T11:01:16;61861.75;;;27.74;25.70
7836;BME280;3963;42.658;23.298;2022-07-12T11:03:45;61922.34;;;27.85;26.55
7836;BME280;3963;42.658;23.298;2022-07-12T11:06:14;62064.81;;;28.96;25.75
7836;BME280;3963;42.658;23.298;2022-07-12T11:08:53;62017.41;;;28.53;25.26
7836;BME280;3963;42.658;23.298;2022-07-12T11:11:24;61783.13;;;27.16;27.68
7836;BME280;3963;42.658;23.298;2022-07-12T11:13:51;61922.69;;;27.95;27.05
7836;BME280;3963;42.658;23.298;2022-07-12T11:16:20;61965.59;;;28.35;26.71
7836;BME280;3963;42.658;23.298;2022-07-12T11:18:47;61959.13;;;28.17;26.93
7836;BME280;3963;42.658;23.298;2022-07-12T11:21:14;61903.13;;;27.85;27.70
7836;BME280;3963;42.658;23.298;2022-07-12T11:23:41;61892.31;;;27.80;27.56
7836;BME280;3963;42.658;23.298;2022-07-12T11:26:10;61774.44;;;27.11;28.01
7836;BME280;3963;42.658;23.298;2022-07-12T11:28:39;61712.91;;;26.69;28.84
7836;BME280;3963;42.658;23.298;2022-07-12T11:31:08;61537.31;;;25.51;31.45
7836;BME280;3963;42.658;23.298;2022-07-12T11:33:36;61573.56;;;25.87;29.88
7836;BME280;3963;42.658;23.298;2022-07-12T11:36:05;61582.25;;;25.93;29.81
7836;BME280;3963;42.658;23.298;2022-07-12T11:38:33;61595.59;;;25.63;30.40
7836;BME280;3963;42.658;23.298;2022-07-12T11:41:02;61566.53;;;25.83;31.16
7836;BME280;3963;42.658;23.298;2022-07-12T11:43:30;61518.66;;;25.49;33.44
7836;BME280;3963;42.658;23.298;2022-07-12T11:45:59;61532.22;;;25.73;32.43
7836;BME280;3963;42.658;23.298;2022-07-12T11:48:26;61551.38;;;25.74;30.68
7836;BME280;3963;42.658;23.298;2022-07-12T11:50:55;61540.13;;;25.71;31.77
7836;BME280;3963;42.658;23.298;2022-07-12T11:53:23;61543.97;;;25.60;32.52
7836;BME280;3963;42.658;23.298;2022-07-12T11:55:52;61481.47;;;25.31;30.97
7836;BME280;3963;42.658;23.298;2022-07-12T11:58:20;61476.84;;;25.20;31.45
7836;BME280;3963;42.658;23.298;2022-07-12T12:00:48;61473.75;;;25.39;32.60
7836;BME280;3963;42.658;23.298;2022-07-12T12:03:18;61527.69;;;25.64;32.00
7836;BME280;3963;42.658;23.298;2022-07-12T12:05:46;61451.88;;;25.19;33.10
7836;BME280;3963;42.658;23.298;2022-07-12T12:08:14;61393.94;;;24.83;33.51
7836;BME280;3963;42.658;23.298;2022-07-12T12:10:42;61451.91;;;25.04;33.52
7836;BME280;3963;42.658;23.298;2022-07-12T12:13:13;61406.91;;;24.90;33.25
7836;BME280;3963;42.658;23.298;2022-07-12T12:15:49;61392.09;;;24.76;35.61
7836;BME280;3963;42.658;23.298;2022-07-12T12:18:27;61386.22;;;24.58;34.25
7836;BME280;3963;42.658;23.298;2022-07-12T12:20:57;61406.09;;;24.82;36.08
7836;BME280;3963;42.658;23.298;2022-07-12T12:23:24;61401.63;;;24.75;35.28
7836;BME280;3963;42.658;23.298;2022-07-12T12:25:51;61333.47;;;24.49;35.54
7836;BME280;3963;42.658;23.298;2022-07-12T12:28:18;61177.91;;;23.39;35.68
7836;BME280;3963;42.658;23.298;2022-07-12T12:30:49;61227.38;;;23.63;36.30
7836;BME280;3963;42.658;23.298;2022-07-12T12:33:36;61262.88;;;23.81;35.83
7836;BME280;3963;42.658;23.298;2022-07-12T12:36:20;61237.09;;;23.69;36.39
7836;BME280;3963;42.658;23.298;2022-07-12T12:38:48;61190.50;;;23.36;36.38
7836;BME280;3963;42.658;23.298;2022-07-12T12:41:16;61230.28;;;23.71;35.51
7836;BME280;3963;42.658;23.298;2022-07-12T12:43:43;61221.94;;;23.75;34.92
7836;BME280;3963;42.658;23.298;2022-07-12T12:46:10;61309.00;;;24.14;33.46
7836;BME280;3963;42.658;23.298;2022-07-12T12:48:46;61226.88;;;23.80;33.70
7836;BME280;3963;42.658;23.298;2022-07-12T12:51:13;61235.72;;;23.76;34.54
7836;BME280;3963;42.658;23.298;2022-07-12T12:53:41;61257.88;;;24.06;35.25
7836;BME280;3963;42.658;23.298;2022-07-12T12:56:10;61312.22;;;24.32;35.27
7836;BME280;3963;42.658;23.298;2022-07-12T12:58:37;61333.50;;;24.34;35.03
7836;BME280;3963;42.658;23.298;2022-07-12T13:01:05;61337.94;;;24.41;35.17
7836;BME280;3963;42.658;23.298;2022-07-12T13:03:32;61254.38;;;23.95;32.70
7836;BME280;3963;42.658;23.298;2022-07-12T13:06:00;61299.53;;;24.32;35.46
7836;BME280;3963;42.658;23.298;2022-07-12T13:08:27;61349.59;;;24.56;34.94
7836;BME280;3963;42.658;23.298;2022-07-12T13:10:54;61387.00;;;24.81;34.52
7836;BME280;3963;42.658;23.298;2022-07-12T13:13:39;61392.06;;;24.59;33.98
7836;BME280;3963;42.658;23.298;2022-07-12T13:16:06;61283.09;;;24.32;34.00